KICT/ICT METAR and TAF weather

Enter ICAO airport designator
Station Type Date Time Source
KICT METAR 2020/01/29 12:53 UTC NOAA

KICT 291253Z 36009KT 10SM BKN007 OVC030 M01/M03 A3012 RMK AO2 SLP211 T10111028


Station Type Date Time Source
KICT Decoded METAR 2020/01/29 12:53 UTC NOAA

WICHITA MID-CONTINENT AIRPORT , KS, United States (KICT) 37-39N 97-26W 408M
Jan 29, 2020 - 07:53 AM EST / 2020.01.29 1253 UTC
Wind: from the N (360 degrees) at 10 MPH (9 KT):0
Visibility: 10 mile(s):0
Sky conditions: overcast
Temperature: 30.0 F (-1.1 C)
Windchill: 21 F (-6 C):1
Dew Point: 27.0 F (-2.8 C)
Relative Humidity: 88%
Pressure (altimeter): 30.12 in. Hg (1019 hPa)
ob: KICT 291253Z 36009KT 10SM BKN007 OVC030 M01/M03 A3012 RMK AO2 SLP211 T10111028
cycle: 13

Station Type Date Time Source
KICT TAF 2020/01/29 12:24 UTC NOAA

TAF KICT 291122Z 2912/3012 35007KT P6SM SCT007 OVC015
TEMPO 2912/2914 BKN007
FM291900 VRB05KT P6SM BKN015
FM300800 00000KT P6SM BKN008
FM301000 VRB03KT 5SM BR OVC008

Example: see airport list